• Join FlightAware (Why Join?)
  • Login
  • US Flag 
10:00AM EDT


 

Airport Tracker/Info


-or-


 

Live Flight TrackerFlight Track Log ✈ AAL2345 ✈ 25-Apr-2013 ✈ KORD - KDFW

Flight Track Log - Related Links

Times and Time Zones

All times are in EDT time to prevent confusion due to time zone crossing. See the AAL2345 flight status page for this flight to view local times or setup timezone preferences in your user account.

Time Position Orientation Groundspeed Altitude Reporting Facility
EDT Latitude Longitude Course Direction KTS MPH feet Rate Location/Type
07:06PM 41.9414 -87.9083 194° South 175 201 32,000  Level Chicago Center
07:07PM 41.8997 -87.9083 180° South 176 203 3,700 -12,540 Descending Chicago Center
07:08PM 41.7658 -88.1621 201° Southwest  Level Estimated
07:08PM 41.8311 -87.9347 196° South 216 249 6,200  Level Chicago Center
07:09PM 41.6754 -88.1191 160° South  Level FlightAware Approximate
07:09PM 41.7636 -87.9772 205° Southwest 262 302 9,100  Level Chicago Center
07:10PM 41.6038 -88.2045 197° South  Level Estimated
07:10PM 41.6889 -88.0200 203° Southwest 286 329 12,200  Level Chicago Center
07:11PM 41.5321 -88.2897 194° South  Level Estimated
07:11PM 41.6111 -88.0617 202° Southwest 301 346 14,700  Level Chicago Center
07:12PM 41.5142 -88.1153 202° Southwest 319 367 17,400 1,980 Climbing Chicago Center
07:13PM 41.4319 -88.1628 203° Southwest 334 384 18,900 1,500 Climbing Chicago Center
07:14PM 41.3381 -88.2097 201° Southwest 370 426 20,600 1,740 Climbing Chicago Center
07:15PM 41.2381 -88.2544 199° South 382 440 22,600 1,920 Climbing Chicago Center
07:16PM 41.1156 -88.3103 199° South 389 448 24,600 1,680 Climbing Chicago Center
07:17PM 41.0106 -88.3583 199° South 399 459 26,100 1,380 Climbing Chicago Center
07:18PM 40.9028 -88.4064 199° South 407 468 27,500 1,140 Climbing Chicago Center
07:19PM 40.7936 -88.4553 199° South 413 475 28,500 840 Climbing Chicago Center
07:20PM 40.6811 -88.5056 199° South 428 493 29,300 1,020 Climbing Chicago Center
07:21PM 40.5408 -88.5683 199° South 442 509 30,700 1,200 Climbing Chicago Center
07:22PM 40.4256 -88.6183 198° South 442 509 31,800 600 Climbing Chicago Center
07:23PM 40.3100 -88.6733 200° South 442 509 32,000 60 Climbing Chicago Center
07:24PM 40.2231 -88.7628 218° Southwest 399 459 32,000  Level Chicago Center
07:25PM 40.1361 -88.8539 219° Southwest 399 459 32,000  Level Chicago Center
07:26PM 40.0467 -88.9453 218° Southwest 400 460 32,000  Level Kansas City Center
07:27PM 39.9572 -89.0364 218° Southwest 403 464 32,000  Level Kansas City Center
07:29PM 39.8697 -89.1264 218° Southwest 401 461 32,000  Level Kansas City Center
07:30PM 39.7806 -89.2164 218° Southwest 403 464 32,000  Level Kansas City Center
07:31PM 39.6875 -89.3119 218° Southwest 402 463 32,000  Level Kansas City Center
07:32PM 39.6006 -89.4006 218° Southwest 399 459 32,000  Level Kansas City Center
07:33PM 39.4942 -89.5075 218° Southwest 402 463 32,000  Level Kansas City Center
07:34PM 39.4058 -89.5964 218° Southwest 402 463 32,000  Level Kansas City Center
07:35PM 39.3178 -89.6822 217° Southwest 399 459 32,000  Level Kansas City Center
07:36PM 39.2311 -89.7700 218° Southwest 396 456 32,000  Level Kansas City Center
07:37PM 39.1297 -89.8736 218° Southwest 398 458 32,000  Level Kansas City Center
07:38PM 39.0422 -89.9589 217° Southwest 398 458 32,000  Level Kansas City Center
07:39PM 38.9608 -90.0531 222° Southwest 382 440 32,000  Level Kansas City Center
07:40PM 38.8928 -90.1467 227° Southwest 370 426 32,000  Level Kansas City Center
07:41PM 38.8214 -90.2461 227° Southwest 373 429 32,000  Level Kansas City Center
07:42PM 38.7489 -90.3444 227° Southwest 377 434 32,000  Level Kansas City Center
07:43PM 38.6622 -90.4639 227° Southwest 378 435 32,000  Level Kansas City Center
07:44PM 38.5864 -90.5617 225° Southwest 383 441 32,000  Level Kansas City Center
07:45PM 38.5131 -90.6611 227° Southwest 381 438 32,000  Level Kansas City Center
07:46PM 38.4478 -90.7489 226° Southwest 377 434 32,000  Level Kansas City Center
07:47PM 38.3625 -90.8631 226° Southwest 373 429 32,000  Level Kansas City Center
07:48PM 38.2911 -90.9583 226° Southwest 372 428 32,000  Level Kansas City Center
07:49PM 38.2203 -91.0536 227° Southwest 372 428 32,000  Level Kansas City Center
07:50PM 38.1381 -91.1600 226° Southwest 374 430 32,000 180 Level Kansas City Center
07:51PM 38.0647 -91.2550 226° Southwest 375 432 32,400 600 Climbing Kansas City Center
07:52PM 37.9928 -91.3519 227° Southwest 376 433 33,300 720 Climbing Kansas City Center
07:53PM 37.9206 -91.4467 226° Southwest 371 427 34,000 300 Climbing Kansas City Center
07:54PM 37.8483 -91.5411 226° Southwest 370 426 34,000  Level Kansas City Center
07:55PM 37.7778 -91.6356 227° Southwest 368 423 34,000  Level Kansas City Center
07:56PM 37.7058 -91.7294 226° Southwest 368 423 34,000  Level Kansas City Center
07:57PM 37.6356 -91.8228 226° Southwest 365 420 34,000  Level Kansas City Center
07:59PM 37.5500 -91.9347 226° Southwest 365 420 34,000  Level Kansas City Center
08:00PM 37.4781 -92.0247 225° Southwest 363 418 34,000  Level Kansas City Center
08:01PM 37.3997 -92.1114 221° Southwest 367 422 34,000  Level Kansas City Center
08:02PM 37.3217 -92.1994 222° Southwest 373 429 34,000  Level Kansas City Center
08:03PM 37.2439 -92.2872 222° Southwest 373 429 34,000  Level Kansas City Center
08:04PM 37.1675 -92.3708 221° Southwest 366 421 34,000  Level Kansas City Center
08:05PM 37.0911 -92.4561 222° Southwest 365 420 34,000  Level Kansas City Center
08:06PM 37.0139 -92.5403 221° Southwest 365 420 34,000  Level Kansas City Center
08:07PM 36.9369 -92.6253 221° Southwest 366 421 34,000  Level Kansas City Center
08:08PM 36.8439 -92.7267 221° Southwest 367 422 34,000  Level Kansas City Center
08:09PM 36.7661 -92.8147 222° Southwest 372 428 34,000 -240 Level Memphis Center
08:10PM 36.6894 -92.8978 221° Southwest 372 428 33,500 -780 Descending Memphis Center
08:11PM 36.6128 -92.9808 221° Southwest 372 428 32,500 -780 Descending Memphis Center
08:12PM 36.5317 -93.0686 221° Southwest 372 428 32,000 -300 Descending Memphis Center
08:13PM 36.4525 -93.1511 220° Southwest 372 428 32,000  Level Memphis Center
08:14PM 36.3714 -93.2386 221° Southwest 377 434 32,000  Level Memphis Center
08:15PM 36.2922 -93.3206 220° Southwest 377 434 32,000  Level Memphis Center
08:16PM 36.2108 -93.4103 222° Southwest 382 440 32,000  Level Memphis Center
08:17PM 36.1317 -93.4922 220° Southwest 382 440 32,000  Level Memphis Center
08:18PM 36.0503 -93.5789 221° Southwest 387 445 32,000  Level Memphis Center
08:19PM 35.9711 -93.6631 221° Southwest 387 445 32,000  Level Memphis Center
08:20PM 35.8914 -93.7494 221° Southwest 387 445 32,000  Level Memphis Center
08:21PM 35.8100 -93.8333 220° Southwest 387 445 32,000  Level Memphis Center
08:22PM 35.7283 -93.9192 220° Southwest 387 445 32,000  Level Memphis Center
08:23PM 35.6467 -94.0025 220° Southwest 387 445 32,000  Level Memphis Center
08:24PM 35.5647 -94.0883 220° Southwest 387 445 32,000  Level Memphis Center
08:25PM 35.4831 -94.1714 220° Southwest 387 445 32,000  Level Memphis Center
08:27PM 35.2842 -94.3872 222° Southwest 409 471 32,000  Level Fort Worth Center
08:28PM 35.2050 -94.4764 223° Southwest 396 456 32,000 -300 Level Fort Worth Center
08:29PM 35.1217 -94.5656 221° Southwest 396 456 31,400 -780 Descending Fort Worth Center
08:30PM 35.0422 -94.6544 223° Southwest 396 456 30,500 -960 Descending Fort Worth Center
08:31PM 34.9586 -94.7433 221° Southwest 401 461 29,500 -1,080 Descending Fort Worth Center
08:32PM 34.8731 -94.8372 222° Southwest 401 461 28,400 -780 Descending Fort Worth Center
08:33PM 34.7994 -94.9153 221° Southwest 401 461 28,000 -600 Descending Fort Worth Center
08:34PM 34.7117 -95.0089 221° Southwest 406 467 27,200 -960 Descending Fort Worth Center
08:35PM 34.6236 -95.1019 221° Southwest 413 475 26,100 -1,080 Descending Fort Worth Center
08:36PM 34.5378 -95.1925 221° Southwest 419 482 25,100 -900 Descending Fort Worth Center
08:37PM 34.4517 -95.2856 222° Southwest 419 482 24,300 -600 Descending Fort Worth Center
08:38PM 34.3656 -95.3781 222° Southwest 419 482 24,000 -180 Descending Fort Worth Center
08:39PM 34.2794 -95.4681 221° Southwest 419 482 24,000  Level Fort Worth Center
08:40PM 34.1908 -95.5581 220° Southwest 419 482 24,000  Level Fort Worth Center
08:41PM 34.1047 -95.6475 221° Southwest 419 482 24,000 -360 Level Fort Worth Center
08:42PM 34.0142 -95.7472 222° Southwest 414 476 23,300 -1,260 Descending Fort Worth Center
08:43PM 33.9319 -95.8339 221° Southwest 409 471 21,500 -2,040 Descending Fort Worth Center
08:44PM 33.8494 -95.9228 222° Southwest 403 464 19,300 -2,400 Descending Fort Worth Center
08:45PM 33.7669 -95.9992 218° Southwest 390 449 16,800 -2,460 Descending Fort Worth Center
08:46PM 33.6947 -96.0728 220° Southwest 385 443 14,400 -2,160 Descending Fort Worth Center
08:47PM 33.6078 -96.1614 220° Southwest 375 432 12,500 -1,440 Descending Fort Worth Center
08:48PM 33.5417 -96.2322 222° Southwest 375 432 11,600 -780 Descending Fort Worth Center
08:49PM 33.4694 -96.3178 225° Southwest 344 396 11,000 -300 Descending Fort Worth Center
08:50PM 33.4178 -96.3831 227° Southwest 313 360 11,000 -120 Level Fort Worth Center
08:51PM 33.3600 -96.4558 226° Southwest 283 326 10,800 -660 Descending Fort Worth Center
08:52PM 33.3333 -96.5283 246° West 273 314 9,700 -1,500 Descending Fort Worth Center
08:53PM 33.3025 -96.6056 244° Southwest 267 307 7,900 -1,800 Descending Fort Worth Center
08:54PM 33.2675 -96.6928 244° Southwest 267 307 6,200 -1,320 Descending Fort Worth Center
08:55PM 33.2408 -96.7628 246° West 262 302 5,300 -600 Descending Fort Worth Center
08:56PM 33.1889 -96.8375 230° Southwest 262 302 5,000 -420 Descending Fort Worth Center
08:57PM 33.1433 -96.8975 228° Southwest 257 296 4,500 -840 Descending Fort Worth Center
08:58PM 33.1039 -96.9472 227° Southwest 242 278 3,400 -780 Descending Fort Worth Center
08:59PM 33.0581 -97.0044 226° Southwest 220 253 3,000 -420 Descending Fort Worth Center